createdAt,value
2023-06-04T00:01:57.722Z,17.21
2023-06-04T00:04:24.449Z,17.23
2023-06-04T00:06:50.939Z,17.32
2023-06-04T00:09:17.307Z,17.24
2023-06-04T00:11:43.881Z,17.13
2023-06-04T00:14:10.285Z,17.05
2023-06-04T00:16:36.969Z,17.03
2023-06-04T00:19:03.936Z,17.02
2023-06-04T00:21:30.523Z,17.02
2023-06-04T00:23:56.892Z,17.04
2023-06-04T00:26:23.390Z,17.08
2023-06-04T00:28:49.819Z,16.98
2023-06-04T00:31:16.901Z,16.98
2023-06-04T00:33:43.396Z,16.89
2023-06-04T00:36:09.974Z,16.81
2023-06-04T00:38:36.331Z,16.72
2023-06-04T00:41:02.765Z,16.66
2023-06-04T00:43:32.302Z,16.54
2023-06-04T00:45:59.112Z,16.52
2023-06-04T00:48:28.426Z,16.43
2023-06-04T00:50:55.874Z,16.36
2023-06-04T00:53:24.575Z,16.39
2023-06-04T00:55:51.433Z,16.35
2023-06-04T00:58:18.446Z,16.31
2023-06-04T01:00:46.357Z,16.26
2023-06-04T01:03:19.701Z,16.22
2023-06-04T01:05:55.744Z,16.16
2023-06-04T01:08:23.403Z,16.17
2023-06-04T01:10:53.583Z,16.17
2023-06-04T01:13:20.000Z,16.17
2023-06-04T01:15:46.796Z,16.00
2023-06-04T01:18:28.441Z,16.03
2023-06-04T01:21:01.978Z,15.88
2023-06-04T01:23:37.354Z,15.83
2023-06-04T01:26:05.791Z,15.63
2023-06-04T01:28:35.710Z,15.67
2023-06-04T01:31:03.689Z,15.56
2023-06-04T01:33:30.342Z,15.54
2023-06-04T01:35:57.011Z,15.46
2023-06-04T01:38:23.338Z,15.47
2023-06-04T01:40:49.853Z,15.25
2023-06-04T01:43:16.733Z,15.20
2023-06-04T01:45:43.107Z,15.12
2023-06-04T01:48:09.643Z,15.10
2023-06-04T01:50:36.161Z,15.04
2023-06-04T01:53:02.834Z,14.93
2023-06-04T01:55:34.110Z,14.86
2023-06-04T01:58:02.158Z,14.80
2023-06-04T02:00:28.653Z,14.68
2023-06-04T02:02:57.113Z,14.62
2023-06-04T02:05:23.913Z,14.62
2023-06-04T02:07:50.323Z,14.58
2023-06-04T02:10:18.426Z,14.51
2023-06-04T02:12:57.157Z,14.50
2023-06-04T02:15:24.428Z,14.38
2023-06-04T02:17:51.470Z,14.37
2023-06-04T02:20:18.519Z,14.38
2023-06-04T02:22:44.968Z,14.20
2023-06-04T02:25:11.457Z,14.21
2023-06-04T02:27:37.932Z,14.24
2023-06-04T02:30:06.454Z,14.26
2023-06-04T02:32:34.634Z,14.06
2023-06-04T02:35:01.154Z,14.05
2023-06-04T02:37:27.487Z,14.04
2023-06-04T02:39:53.857Z,14.02
2023-06-04T02:42:20.272Z,14.01
2023-06-04T02:44:46.643Z,14.01
2023-06-04T02:47:12.971Z,14.08
2023-06-04T02:49:39.367Z,13.95
2023-06-04T02:52:06.360Z,13.80
2023-06-04T02:54:32.681Z,13.69
2023-06-04T02:56:59.160Z,13.55
2023-06-04T02:59:26.269Z,13.53
2023-06-04T03:01:52.692Z,13.46
2023-06-04T03:04:19.330Z,13.40
2023-06-04T03:06:45.775Z,13.40
2023-06-04T03:09:12.656Z,13.34
2023-06-04T03:11:39.244Z,13.31
2023-06-04T03:14:06.238Z,13.20
2023-06-04T03:16:32.617Z,13.26
2023-06-04T03:18:58.980Z,13.10
2023-06-04T03:21:26.035Z,13.06
2023-06-04T03:23:52.503Z,13.01
2023-06-04T03:26:18.982Z,13.02
2023-06-04T03:28:45.403Z,13.09
2023-06-04T03:31:11.775Z,13.08
2023-06-04T03:33:38.220Z,12.94
2023-06-04T03:36:04.931Z,12.92
2023-06-04T03:38:31.492Z,12.99
2023-06-04T03:40:57.928Z,12.88
2023-06-04T03:43:24.290Z,12.89
2023-06-04T03:45:50.736Z,12.74
2023-06-04T03:48:17.157Z,12.84
2023-06-04T03:50:43.577Z,12.74
2023-06-04T03:53:10.168Z,12.61
2023-06-04T03:55:38.080Z,12.53
2023-06-04T03:58:04.465Z,12.64
2023-06-04T04:00:30.881Z,12.71
2023-06-04T04:02:57.624Z,12.58
2023-06-04T04:05:24.108Z,12.61
2023-06-04T04:07:50.580Z,12.53
2023-06-04T04:10:17.020Z,12.55
2023-06-04T04:12:43.518Z,12.64
2023-06-04T04:15:10.340Z,12.71
2023-06-04T04:17:36.956Z,12.70
2023-06-04T04:20:06.296Z,12.72
2023-06-04T04:22:34.005Z,12.67
2023-06-04T04:25:00.484Z,12.65
2023-06-04T04:27:27.087Z,12.71
2023-06-04T04:29:56.128Z,12.74
2023-06-04T04:32:23.701Z,12.83
2023-06-04T04:34:55.578Z,12.92
2023-06-04T04:37:22.822Z,13.02
2023-06-04T04:39:52.799Z,13.15
2023-06-04T04:42:20.267Z,13.25
2023-06-04T04:44:48.886Z,13.35
2023-06-04T04:47:16.423Z,13.36
2023-06-04T04:49:43.390Z,13.46
2023-06-04T04:52:09.842Z,13.52
2023-06-04T04:54:36.305Z,13.60
2023-06-04T04:57:13.516Z,13.67
2023-06-04T04:59:41.054Z,13.73
2023-06-04T05:02:07.705Z,13.90
2023-06-04T05:04:34.333Z,13.94
2023-06-04T05:07:00.847Z,14.00
2023-06-04T05:09:27.188Z,14.07
2023-06-04T05:11:53.592Z,14.14
2023-06-04T05:14:19.959Z,14.18
2023-06-04T05:16:46.509Z,14.25
2023-06-04T05:19:13.154Z,14.34
2023-06-04T05:21:40.413Z,14.43
2023-06-04T05:24:06.975Z,14.51
2023-06-04T05:26:34.089Z,14.52
2023-06-04T05:29:00.912Z,14.65
2023-06-04T05:31:30.501Z,14.68
2023-06-04T05:33:56.924Z,14.80
2023-06-04T05:36:23.456Z,14.97
2023-06-04T05:38:58.030Z,15.06
2023-06-04T05:41:25.189Z,15.15
2023-06-04T05:43:51.531Z,15.17
2023-06-04T05:46:18.031Z,15.32
2023-06-04T05:48:44.489Z,15.42
2023-06-04T05:51:10.827Z,15.42
2023-06-04T05:53:37.447Z,15.44
2023-06-04T05:56:03.972Z,15.52
2023-06-04T05:58:30.754Z,15.64
2023-06-04T06:00:57.087Z,15.74
2023-06-04T06:03:23.864Z,15.90
2023-06-04T06:05:50.589Z,15.96
2023-06-04T06:08:17.229Z,16.04
2023-06-04T06:10:43.952Z,16.10
2023-06-04T06:13:10.452Z,16.24
2023-06-04T06:15:36.983Z,16.36
2023-06-04T06:18:03.497Z,16.49
2023-06-04T06:20:30.187Z,16.60
2023-06-04T06:22:56.625Z,16.62
2023-06-04T06:25:23.099Z,16.70
2023-06-04T06:27:49.451Z,16.79
2023-06-04T06:30:16.167Z,16.85
2023-06-04T06:32:42.885Z,16.96
2023-06-04T06:35:09.654Z,17.01
2023-06-04T06:37:36.063Z,17.11
2023-06-04T06:40:02.505Z,17.22
2023-06-04T06:42:34.912Z,17.41
2023-06-04T06:45:01.256Z,17.46
2023-06-04T06:47:27.620Z,17.56
2023-06-04T06:49:54.119Z,17.63
2023-06-04T06:52:20.868Z,17.72
2023-06-04T06:54:47.441Z,17.81
2023-06-04T06:57:14.299Z,17.97
2023-06-04T06:59:40.748Z,18.08
2023-06-04T07:02:07.477Z,18.17
2023-06-04T07:04:33.824Z,18.22
2023-06-04T07:07:00.526Z,18.32
2023-06-04T07:09:27.028Z,18.38
2023-06-04T07:11:53.381Z,18.46
2023-06-04T07:14:20.090Z,18.55
2023-06-04T07:16:46.582Z,18.67
2023-06-04T07:19:12.978Z,18.82
2023-06-04T07:21:39.533Z,18.94
2023-06-04T07:24:06.033Z,19.09
2023-06-04T07:26:35.099Z,19.29
2023-06-04T07:29:01.938Z,19.43
2023-06-04T07:31:28.288Z,19.56
2023-06-04T07:33:54.652Z,19.62
2023-06-04T07:36:23.976Z,19.81
2023-06-04T07:38:50.339Z,19.91
2023-06-04T07:41:17.079Z,20.08
2023-06-04T07:43:44.332Z,20.23
2023-06-04T07:46:11.873Z,20.28
2023-06-04T07:48:38.237Z,20.39
2023-06-04T07:51:05.675Z,20.58
2023-06-04T07:53:32.234Z,20.73
2023-06-04T07:55:58.639Z,20.77
2023-06-04T07:58:25.145Z,20.90
2023-06-04T08:00:51.543Z,21.02
2023-06-04T08:03:18.052Z,21.14
2023-06-04T08:05:44.580Z,21.26
2023-06-04T08:08:10.982Z,21.40
2023-06-04T08:10:37.657Z,21.37
2023-06-04T08:13:04.131Z,21.41
2023-06-04T08:15:30.738Z,21.37
2023-06-04T08:17:57.721Z,21.54
2023-06-04T08:20:27.222Z,21.74
2023-06-04T08:22:53.890Z,21.71
2023-06-04T08:25:20.388Z,21.79
2023-06-04T08:27:46.722Z,21.70
2023-06-04T08:30:13.222Z,21.95
2023-06-04T08:32:41.290Z,22.14
2023-06-04T08:35:09.254Z,22.37
2023-06-04T08:37:36.699Z,22.53
2023-06-04T08:40:05.898Z,22.64
2023-06-04T08:42:39.355Z,22.59
2023-06-04T08:45:07.908Z,22.38
2023-06-04T08:47:35.943Z,22.47
2023-06-04T08:50:02.987Z,22.73
2023-06-04T08:52:29.834Z,22.89
2023-06-04T08:54:56.619Z,23.10
2023-06-04T08:57:23.016Z,22.89
2023-06-04T08:59:51.085Z,22.95
2023-06-04T09:02:18.478Z,22.85
2023-06-04T09:04:45.709Z,22.93
2023-06-04T09:07:14.214Z,22.55
2023-06-04T09:09:43.849Z,22.80
2023-06-04T09:12:12.723Z,23.07
2023-06-04T09:14:39.096Z,23.37
2023-06-04T09:17:06.326Z,23.48
2023-06-04T09:19:32.835Z,23.42
2023-06-04T09:22:01.660Z,23.58
2023-06-04T09:24:42.326Z,23.36
2023-06-04T09:27:13.162Z,23.43
2023-06-04T09:29:40.904Z,23.62
2023-06-04T09:32:07.362Z,23.90
2023-06-04T09:34:34.032Z,24.02
2023-06-04T09:37:00.399Z,23.90
2023-06-04T09:39:27.980Z,24.19
2023-06-04T09:41:59.284Z,24.42
2023-06-04T09:44:25.727Z,24.45
2023-06-04T09:46:59.397Z,24.34
2023-06-04T09:49:25.914Z,24.11
2023-06-04T09:51:52.365Z,24.04
2023-06-04T09:54:18.844Z,24.01
2023-06-04T09:56:45.267Z,24.20
2023-06-04T09:59:13.808Z,24.45
2023-06-04T10:01:42.483Z,24.55
2023-06-04T10:04:10.356Z,24.40
2023-06-04T10:06:37.462Z,24.38
2023-06-04T10:09:08.750Z,24.70
2023-06-04T10:11:38.690Z,24.84
2023-06-04T10:14:12.765Z,25.01
2023-06-04T10:16:41.030Z,24.88
2023-06-04T10:19:08.561Z,24.47
2023-06-04T10:21:38.534Z,24.57
2023-06-04T10:24:05.575Z,24.44
2023-06-04T10:26:34.953Z,24.37
2023-06-04T10:29:02.031Z,24.58
2023-06-04T10:31:28.555Z,24.89
2023-06-04T10:33:56.274Z,24.97
2023-06-04T10:36:24.999Z,25.26
2023-06-04T10:38:55.863Z,25.03
2023-06-04T10:41:24.786Z,25.31
2023-06-04T10:43:52.818Z,25.48
2023-06-04T10:46:21.229Z,24.90
2023-06-04T10:48:51.941Z,24.84
2023-06-04T10:51:34.040Z,24.63
2023-06-04T10:54:02.098Z,24.41
2023-06-04T10:56:39.223Z,24.59
2023-06-04T10:59:16.180Z,24.91
2023-06-04T11:01:42.712Z,24.74
2023-06-04T11:04:22.834Z,24.98
2023-06-04T11:07:03.004Z,24.93
2023-06-04T11:09:29.362Z,24.84
2023-06-04T11:12:02.443Z,24.92
2023-06-04T11:14:28.950Z,25.00
2023-06-04T11:16:55.420Z,24.55
2023-06-04T11:19:21.864Z,24.54
2023-06-04T11:21:49.287Z,24.62
2023-06-04T11:24:17.363Z,24.61
2023-06-04T11:26:50.551Z,24.51
2023-06-04T11:29:23.417Z,24.53
2023-06-04T11:31:49.920Z,24.52
2023-06-04T11:34:30.615Z,24.48
2023-06-04T11:36:56.978Z,24.57
2023-06-04T11:39:23.911Z,24.77
2023-06-04T11:41:52.296Z,24.85
2023-06-04T11:44:21.931Z,24.83
2023-06-04T11:46:49.708Z,24.79
2023-06-04T11:49:17.279Z,24.79
2023-06-04T11:51:52.992Z,24.73
2023-06-04T11:54:23.162Z,24.90
2023-06-04T11:56:51.890Z,24.92
2023-06-04T11:59:19.285Z,24.73
2023-06-04T12:01:47.375Z,24.51
2023-06-04T12:04:18.281Z,24.46
2023-06-04T12:07:05.635Z,24.62
2023-06-04T12:09:35.953Z,24.60
2023-06-04T12:12:04.712Z,24.72
2023-06-04T12:14:31.760Z,24.71
2023-06-04T12:16:59.954Z,24.83
2023-06-04T12:19:27.480Z,24.88
2023-06-04T12:22:04.627Z,25.00
2023-06-04T12:24:33.135Z,25.10
2023-06-04T12:27:07.773Z,25.20
2023-06-04T12:29:34.382Z,25.18
2023-06-04T12:32:06.055Z,25.30
2023-06-04T12:34:33.023Z,25.25
2023-06-04T12:36:59.692Z,25.13
2023-06-04T12:39:26.171Z,25.18
2023-06-04T12:41:52.570Z,25.16
2023-06-04T12:44:19.059Z,25.09
2023-06-04T12:46:45.929Z,24.98
2023-06-04T12:49:13.145Z,25.11
2023-06-04T12:51:39.900Z,25.21
2023-06-04T12:54:06.289Z,25.26
2023-06-04T12:56:32.866Z,25.31
2023-06-04T12:59:00.125Z,25.29
2023-06-04T13:01:28.370Z,25.32
2023-06-04T13:03:56.649Z,25.39
2023-06-04T13:06:23.389Z,25.56
2023-06-04T13:08:49.770Z,25.69
2023-06-04T13:11:16.580Z,25.73
2023-06-04T13:13:43.124Z,25.73
2023-06-04T13:16:09.683Z,25.67
2023-06-04T13:18:36.620Z,25.81
2023-06-04T13:21:03.297Z,25.86
2023-06-04T13:23:45.437Z,25.93
2023-06-04T13:26:16.099Z,25.69
2023-06-04T13:28:42.515Z,25.76
2023-06-04T13:31:09.211Z,25.68
2023-06-04T13:33:36.210Z,25.80
2023-06-04T13:36:06.260Z,25.85
2023-06-04T13:38:33.114Z,25.77
2023-06-04T13:40:59.643Z,25.84
2023-06-04T13:43:26.392Z,25.72
2023-06-04T13:45:53.170Z,25.75
2023-06-04T13:48:19.762Z,25.76
2023-06-04T13:50:46.538Z,25.73
2023-06-04T13:53:15.791Z,25.83
2023-06-04T13:55:42.159Z,25.76
2023-06-04T13:58:08.703Z,25.93
2023-06-04T14:00:35.491Z,26.02
2023-06-04T14:03:01.975Z,26.00
2023-06-04T14:05:28.984Z,25.95
2023-06-04T14:07:55.759Z,25.99
2023-06-04T14:10:22.122Z,26.04
2023-06-04T14:12:48.562Z,26.16
2023-06-04T14:15:14.963Z,26.07
2023-06-04T14:17:41.645Z,26.06
2023-06-04T14:20:09.677Z,26.02
2023-06-04T14:22:39.961Z,26.16
2023-06-04T14:25:08.001Z,26.21
2023-06-04T14:27:35.717Z,26.18
2023-06-04T14:30:03.751Z,26.27
2023-06-04T14:32:30.227Z,26.37
2023-06-04T14:34:57.274Z,26.25
2023-06-04T14:37:23.673Z,26.23
2023-06-04T14:39:50.377Z,26.10
2023-06-04T14:42:17.048Z,26.19
2023-06-04T14:44:43.513Z,26.09
2023-06-04T14:47:09.848Z,26.16
2023-06-04T14:49:37.344Z,26.18
2023-06-04T14:52:03.887Z,26.24
2023-06-04T14:54:31.021Z,26.30
2023-06-04T14:56:57.501Z,26.39
2023-06-04T14:59:23.933Z,26.40
2023-06-04T15:01:50.415Z,26.39
2023-06-04T15:04:16.773Z,26.28
2023-06-04T15:06:43.110Z,26.22
2023-06-04T15:09:09.616Z,26.26
2023-06-04T15:11:35.975Z,26.19
2023-06-04T15:14:02.711Z,26.31
2023-06-04T15:16:29.124Z,26.28
2023-06-04T15:18:57.416Z,26.27
2023-06-04T15:21:24.061Z,26.29
2023-06-04T15:23:50.722Z,26.41
2023-06-04T15:26:17.468Z,26.34
2023-06-04T15:28:44.292Z,26.19
2023-06-04T15:31:10.987Z,26.16
2023-06-04T15:33:37.376Z,26.07
2023-06-04T15:36:04.259Z,26.12
2023-06-04T15:38:31.943Z,26.15
2023-06-04T15:40:58.651Z,26.08
2023-06-04T15:43:25.270Z,25.95
2023-06-04T15:45:51.828Z,25.91
2023-06-04T15:48:18.319Z,25.86
2023-06-04T15:50:44.732Z,25.88
2023-06-04T15:53:11.200Z,25.95
2023-06-04T15:55:37.646Z,25.94
2023-06-04T15:58:04.121Z,25.74
2023-06-04T16:00:30.553Z,25.71
2023-06-04T16:02:57.096Z,25.85
2023-06-04T16:05:23.524Z,25.88
2023-06-04T16:07:49.921Z,25.73
2023-06-04T16:10:16.261Z,25.59
2023-06-04T16:12:42.646Z,25.66
2023-06-04T16:15:09.386Z,25.70
2023-06-04T16:17:35.826Z,25.66
2023-06-04T16:20:03.701Z,25.66
2023-06-04T16:22:30.210Z,25.78
2023-06-04T16:24:56.980Z,25.83
2023-06-04T16:27:23.329Z,25.75
2023-06-04T16:29:49.686Z,25.52
2023-06-04T16:32:16.121Z,25.44
2023-06-04T16:34:42.474Z,25.42
2023-06-04T16:37:08.863Z,25.43
2023-06-04T16:39:35.364Z,25.33
2023-06-04T16:42:03.900Z,25.23
2023-06-04T16:44:30.289Z,25.30
2023-06-04T16:46:57.040Z,25.38
2023-06-04T16:49:23.432Z,25.27
2023-06-04T16:51:49.880Z,25.19
2023-06-04T16:54:16.530Z,25.23
2023-06-04T16:56:43.431Z,25.33
2023-06-04T16:59:09.914Z,25.53
2023-06-04T17:01:37.969Z,25.47
2023-06-04T17:04:05.262Z,25.25
2023-06-04T17:06:32.346Z,25.06
2023-06-04T17:08:58.710Z,25.06
2023-06-04T17:11:25.715Z,24.98
2023-06-04T17:13:52.152Z,24.92
2023-06-04T17:16:18.704Z,24.79
2023-06-04T17:18:45.168Z,24.73
2023-06-04T17:21:12.298Z,24.80
2023-06-04T17:23:40.843Z,24.76
2023-06-04T17:26:08.002Z,24.73
2023-06-04T17:28:34.646Z,24.60
2023-06-04T17:31:01.590Z,24.49
2023-06-04T17:33:28.200Z,24.44
2023-06-04T17:35:54.708Z,24.38
2023-06-04T17:38:21.079Z,24.34
2023-06-04T17:40:47.522Z,24.35
2023-06-04T17:43:14.032Z,24.32
2023-06-04T17:45:40.773Z,24.23
2023-06-04T17:48:07.668Z,24.34
2023-06-04T17:50:34.098Z,24.31
2023-06-04T17:53:00.803Z,24.35
2023-06-04T17:55:27.228Z,24.26
2023-06-04T17:57:56.412Z,24.12
2023-06-04T18:00:23.067Z,24.14
2023-06-04T18:02:49.600Z,23.98
2023-06-04T18:05:16.070Z,23.94
2023-06-04T18:07:42.548Z,23.87
2023-06-04T18:10:09.376Z,23.88
2023-06-04T18:12:36.683Z,23.80
2023-06-04T18:15:04.353Z,23.72
2023-06-04T18:17:31.040Z,23.68
2023-06-04T18:19:57.397Z,23.66
2023-06-04T18:22:23.780Z,23.63
2023-06-04T18:24:53.316Z,23.68
2023-06-04T18:27:20.870Z,23.70
2023-06-04T18:29:49.996Z,23.65
2023-06-04T18:32:17.408Z,23.63
2023-06-04T18:34:43.873Z,23.51
2023-06-04T18:37:10.922Z,23.46
2023-06-04T18:39:37.393Z,23.36
2023-06-04T18:42:05.643Z,23.41
2023-06-04T18:44:38.705Z,23.34
2023-06-04T18:47:05.655Z,23.32
2023-06-04T18:49:32.660Z,23.21
2023-06-04T18:51:59.751Z,23.19
2023-06-04T18:54:26.133Z,23.14
2023-06-04T18:56:52.480Z,23.08
2023-06-04T18:59:19.036Z,23.03
2023-06-04T19:01:45.857Z,23.03
2023-06-04T19:04:15.044Z,22.92
2023-06-04T19:06:42.264Z,22.95
2023-06-04T19:09:09.162Z,22.86
2023-06-04T19:11:37.024Z,22.76
2023-06-04T19:14:03.483Z,22.65
2023-06-04T19:16:29.956Z,22.65
2023-06-04T19:18:59.512Z,22.63
2023-06-04T19:21:26.017Z,22.60
2023-06-04T19:23:52.404Z,22.59
2023-06-04T19:26:19.089Z,22.53
2023-06-04T19:28:45.755Z,22.49
2023-06-04T19:31:12.102Z,22.40
2023-06-04T19:33:38.672Z,22.40
2023-06-04T19:36:06.015Z,22.32
2023-06-04T19:38:32.598Z,22.28
2023-06-04T19:40:59.060Z,22.24
2023-06-04T19:43:25.472Z,22.20
2023-06-04T19:45:53.135Z,22.18
2023-06-04T19:48:19.683Z,22.05
2023-06-04T19:50:46.007Z,22.03
2023-06-04T19:53:12.348Z,21.93
2023-06-04T19:55:38.802Z,21.92
2023-06-04T19:58:05.145Z,21.87
2023-06-04T20:00:31.827Z,21.79
2023-06-04T20:02:58.461Z,21.82
2023-06-04T20:05:24.922Z,21.75
2023-06-04T20:07:51.811Z,21.70
2023-06-04T20:10:19.472Z,21.63
2023-06-04T20:12:45.966Z,21.64
2023-06-04T20:15:12.359Z,21.49
2023-06-04T20:17:39.194Z,21.39
2023-06-04T20:20:07.233Z,21.42
2023-06-04T20:22:34.087Z,21.30
2023-06-04T20:25:00.849Z,21.33
2023-06-04T20:27:27.541Z,21.29
2023-06-04T20:29:53.931Z,21.35
2023-06-04T20:32:21.107Z,21.23
2023-06-04T20:34:47.536Z,21.24
2023-06-04T20:37:13.987Z,21.20
2023-06-04T20:39:41.951Z,21.16
2023-06-04T20:42:08.426Z,21.17
2023-06-04T20:44:34.900Z,21.04
2023-06-04T20:47:01.369Z,21.02
2023-06-04T20:49:27.855Z,21.06
2023-06-04T20:51:54.215Z,21.08
2023-06-04T20:54:20.651Z,20.99
2023-06-04T20:56:47.125Z,20.97
2023-06-04T20:59:14.573Z,20.92
2023-06-04T21:01:40.985Z,20.94
2023-06-04T21:04:09.104Z,20.88
2023-06-04T21:06:35.571Z,20.98
2023-06-04T21:09:02.008Z,20.89
2023-06-04T21:11:28.691Z,20.83
2023-06-04T21:13:57.411Z,20.75
2023-06-04T21:16:23.932Z,20.87
2023-06-04T21:18:53.549Z,20.90
2023-06-04T21:21:20.615Z,20.72
2023-06-04T21:23:47.121Z,20.71
2023-06-04T21:26:13.500Z,20.76
2023-06-04T21:28:39.844Z,20.68
2023-06-04T21:31:06.497Z,20.56
2023-06-04T21:33:33.080Z,20.59
2023-06-04T21:35:59.422Z,20.55
2023-06-04T21:38:27.409Z,20.53
2023-06-04T21:40:53.957Z,20.51
2023-06-04T21:43:21.620Z,20.49
2023-06-04T21:45:48.455Z,20.45
2023-06-04T21:48:15.042Z,20.47
2023-06-04T21:50:41.468Z,20.42
2023-06-04T21:53:07.882Z,20.38
2023-06-04T21:55:36.530Z,20.34
2023-06-04T21:58:04.401Z,20.39
2023-06-04T22:00:30.867Z,20.36
2023-06-04T22:02:57.302Z,20.17
2023-06-04T22:05:24.160Z,20.11
2023-06-04T22:07:50.661Z,20.03
2023-06-04T22:10:17.101Z,19.99
2023-06-04T22:12:43.552Z,19.98
2023-06-04T22:15:10.288Z,20.03
2023-06-04T22:17:36.764Z,19.92
2023-06-04T22:20:03.594Z,19.88
2023-06-04T22:22:30.002Z,19.87
2023-06-04T22:24:56.537Z,19.83
2023-06-04T22:27:22.909Z,19.87
2023-06-04T22:29:49.348Z,19.86
2023-06-04T22:32:15.813Z,19.89
2023-06-04T22:34:42.211Z,19.87
2023-06-04T22:37:08.671Z,19.87
2023-06-04T22:39:35.022Z,19.65
2023-06-04T22:42:01.374Z,19.61
2023-06-04T22:44:27.790Z,19.52
2023-06-04T22:46:54.426Z,19.44
2023-06-04T22:49:20.886Z,19.41
2023-06-04T22:51:47.407Z,19.35
2023-06-04T22:54:13.878Z,19.29
2023-06-04T22:56:40.336Z,19.33
2023-06-04T22:59:06.869Z,19.24
2023-06-04T23:01:33.260Z,19.28
2023-06-04T23:03:59.702Z,19.36
2023-06-04T23:06:26.202Z,19.40
2023-06-04T23:08:52.555Z,19.37
2023-06-04T23:11:18.965Z,19.45
2023-06-04T23:13:46.284Z,19.47
2023-06-04T23:16:12.650Z,19.42
2023-06-04T23:18:39.075Z,19.44
2023-06-04T23:21:05.650Z,19.39
2023-06-04T23:23:32.142Z,19.30
2023-06-04T23:25:58.530Z,19.21
2023-06-04T23:28:25.064Z,19.21
2023-06-04T23:30:51.434Z,19.15
2023-06-04T23:33:18.056Z,19.15
2023-06-04T23:35:44.579Z,19.10
2023-06-04T23:38:11.354Z,19.00
2023-06-04T23:40:37.772Z,18.96
2023-06-04T23:43:04.234Z,18.93
2023-06-04T23:45:30.788Z,18.82
2023-06-04T23:47:57.287Z,18.67
2023-06-04T23:50:23.808Z,18.60
2023-06-04T23:52:50.162Z,18.59
2023-06-04T23:55:16.531Z,18.49
2023-06-04T23:57:43.017Z,18.49
